Latest Weather Observations for Evans Head

IDN60801

Issued at 12:32 pm EST Saturday 29 August 2015 (issued every 30 minutes, with the page automatically refreshed every 10 minutes)

About weather observations | Map of weather stations | Latest weather observations for NSW | Other Formats
Station Details ID: 058212 Name: EVANS HEAD RAAF BOMBING RANGE AWS Lat: -29.18 Lon: 153.40 Height: 62.5 m
Data from the previous 72 hours. | See also: Recent months at Evans Head
Date/Time
EST
Temp
°C
App
Temp
°C
Dew
Point
Rel
Hum
%
Delta-T
°C
Wind Press
QNH
hPa
Press
MSL
hPa
Rain
since 9 am
mm
Dir
 
Spd
km/h
Gust
km/h
Spd
kts
Gust
kts
29/12:30pm 19.3 17.2 12.3 64 3.9 ENE 15 20 8 11 1020.9 1020.8 0.0
29/12:00pm 19.0 16.9 12.5 66 3.6 ENE 15 20 8 11 1021.5 1021.4 0.0
29/11:30am 19.5 17.8 12.5 64 3.9 E 13 19 7 10 1022.2 1022.1 0.0
29/11:00am 20.0 18.8 12.7 63 4.1 E 11 15 6 8 1022.6 1022.5 0.0
29/10:30am 20.6 19.9 12.1 58 4.8 E 7 13 4 7 1023.0 1022.9 0.0
29/10:00am 19.7 19.9 12.0 61 4.3 WNW 2 7 1 4 1023.2 1023.1 0.0
29/09:30am 17.9 16.5 9.0 56 4.6 SSW 6 9 3 5 1023.4 1023.3 0.0
29/09:00am 16.8 15.4 9.5 62 3.8 SW 7 11 4 6 1023.7 1023.6 0.0
29/08:30am 15.4 14.2 10.2 71 2.7 W 7 9 4 5 1023.7 1023.6 0.0
29/08:00am 14.4 13.3 10.8 79 1.9 W 7 9 4 5 1023.6 1023.5 0.0
29/07:30am 13.1 11.8 11.2 88 1.0 WSW 9 13 5 7 1023.4 1023.3 0.0
29/07:00am 12.1 11.3 11.6 97 0.3 WSW 7 9 4 5 1023.2 1023.1 0.0
29/06:30am 9.3 7.8 9.0 98 0.1 NW 7 9 4 5 1022.9 1022.8 0.0
29/06:00am 9.0 7.5 8.5 97 0.2 NNW 6 9 3 5 1022.7 1022.6 0.0
29/05:30am 9.3 7.7 8.8 97 0.2 WNW 7 9 4 5 1022.3 1022.2 0.0
29/05:00am 10.4 9.1 9.8 96 0.3 WNW 7 9 4 5 1022.0 1021.9 0.0
29/04:30am 11.2 9.8 9.6 90 0.8 WNW 7 7 4 4 1021.9 1021.8 0.0
29/04:00am 12.0 10.9 9.9 87 1.1 NW 6 7 3 4 1021.8 1021.7 0.0
29/03:30am 11.4 9.3 8.4 82 1.5 W 9 13 5 7 1021.9 1021.8 0.0
29/03:00am 12.1 10.6 9.1 82 1.5 W 7 11 4 6 1021.9 1021.8 0.0
29/02:30am 13.0 10.7 9.1 77 2.0 W 11 13 6 7 1022.0 1021.9 0.0
29/02:00am 13.3 10.4 9.5 78 1.9 WSW 15 15 8 8 1022.1 1022.0 0.0
29/01:30am 13.0 10.4 9.4 79 1.8 WSW 13 15 7 8 1022.1 1022.0 0.0
29/01:00am 13.7 11.8 9.2 74 2.3 SW 9 15 5 8 1022.4 1022.3 0.0
29/12:30am 14.2 11.7 9.6 74 2.4 WSW 13 13 7 7 1022.6 1022.5 0.0
29/12:00am 14.5 13.2 9.3 71 2.7 WSW 6 11 3 6 1022.7 1022.6 0.0
 
Date/Time
EST
Temp
°C
App
Temp
°C
Dew
Point
Rel
Hum
%
Delta-T
°C
Wind Press
QNH
hPa
Press
MSL
hPa
Rain
since 9 am
mm
Dir
 
Spd
km/h
Gust
km/h
Spd
kts
Gust
kts
28/11:30pm 14.8 14.6 9.2 69 2.9 CALM 0 0 0 0 1022.7 1022.6 0.0
28/11:00pm 14.6 14.5 9.4 71 2.7 CALM 0 0 0 0 1022.6 1022.5 0.0
28/10:30pm 14.6 14.1 9.4 71 2.7 SW 2 7 1 4 1022.7 1022.6 0.0
28/10:00pm 14.0 13.6 9.6 75 2.3 WSW 2 7 1 4 1022.7 1022.6 0.0
28/09:30pm 14.0 12.0 10.2 78 2.0 SW 11 15 6 8 1023.0 1022.9 0.0
28/09:00pm 13.0 10.9 9.6 80 1.7 SSW 11 17 6 9 1022.7 1022.6 0.0
28/08:30pm 14.1 12.2 10.5 79 1.9 SSW 11 19 6 10 1022.3 1022.2 0.0
28/08:00pm 13.0 10.4 9.4 79 1.8 NNW 13 15 7 8 1021.7 1021.6 0.0
28/07:30pm 16.4 14.8 10.3 67 3.2 ENE 9 11 5 6 1021.2 1021.1 0.0
28/07:00pm 15.8 14.4 9.7 67 3.2 NE 7 13 4 7 1020.7 1020.6 0.0
28/06:30pm 16.6 14.6 10.2 66 3.4 ENE 11 17 6 9 1020.4 1020.3 0.0
28/06:00pm 16.7 14.2 9.6 63 3.7 E 13 19 7 10 1020.0 1019.9 0.0
28/05:30pm 16.6 14.5 9.8 64 3.6 E 11 17 6 9 1019.9 1019.8 0.0
28/05:00pm 17.3 15.3 8.7 57 4.4 NE 9 13 5 7 1019.5 1019.4 0.0
28/04:30pm 18.3 16.1 9.4 56 4.7 E 11 15 6 8 1019.3 1019.2 0.0
28/04:00pm 19.1 17.0 9.6 54 5.0 ESE 11 15 6 8 1019.1 1019.0 0.0
28/03:30pm 19.5 16.9 9.4 52 5.4 ESE 13 19 7 10 1018.9 1018.8 0.0
28/03:00pm 22.7 20.4 7.3 37 8.0 NW 9 13 5 7 1018.9 1018.8 0.0
28/02:30pm 21.7 18.7 6.0 36 7.9 WSW 11 19 6 10 1019.0 1018.9 0.0
28/02:00pm 22.4 19.9 6.6 36 8.1 W 9 15 5 8 1019.2 1019.1 0.0
28/01:30pm 21.2 17.9 4.7 34 8.1 SW 11 20 6 11 1019.5 1019.4 0.0
28/01:00pm 21.2 17.6 6.7 39 7.4 WSW 15 24 8 13 1019.8 1019.7 0.0
28/12:30pm 21.6 18.6 7.8 41 7.2 W 13 20 7 11 1020.2 1020.1 0.0
28/12:00pm 20.5 16.4 6.4 40 7.1 WSW 17 24 9 13 1020.7 1020.6 0.0
28/11:30am 21.0 18.0 9.3 47 6.2 W 15 26 8 14 1021.2 1021.1 0.0
28/11:00am 19.2 16.2 7.6 47 5.9 SW 13 22 7 12 1021.7 1021.6 0.0
28/10:30am 18.9 15.4 7.4 47 5.8 SSW 15 20 8 11 1022.0 1021.9 0.0
28/10:00am 19.0 16.8 10.8 59 4.4 SSW 13 19 7 10 1022.3 1022.2 0.0
28/09:30am 18.0 15.4 9.4 57 4.5 WSW 13 19 7 10 1022.3 1022.2 0.0
28/09:00am 17.5 15.2 10.4 63 3.8 SW 13 19 7 10 1022.3 1022.2 3.8
28/08:30am 16.7 14.6 11.2 70 3.0 SW 13 22 7 12 1022.1 1022.0 3.8
28/08:00am 15.9 14.2 12.6 81 1.8 SW 13 19 7 10 1022.0 1021.9 3.8
28/07:30am 14.9 13.7 14.1 95 0.5 SW 13 20 7 11 1021.7 1021.6 3.8
28/07:00am 13.9 12.9 13.4 97 0.3 WSW 11 15 6 8 1021.4 1021.3 3.8
28/06:30am 13.9 12.5 13.4 97 0.3 WSW 13 20 7 11 1021.0 1020.9 3.8
28/06:00am 14.2 13.4 13.9 98 0.2 W 11 15 6 8 1020.8 1020.7 3.8
28/05:30am 14.3 13.9 14.0 98 0.2 WNW 9 15 5 8 1020.4 1020.3 3.8
28/05:00am 14.4 14.0 14.1 98 0.2 W 9 13 5 7 1020.3 1020.2 3.8
28/04:30am 14.4 13.7 14.2 99 0.1 W 11 15 6 8 1019.9 1019.8 3.8
28/04:00am 14.5 14.2 14.3 99 0.1 WNW 9 13 5 7 1019.9 1019.8 3.8
28/03:30am 14.5 14.2 14.3 99 0.1 W 9 15 5 8 1019.7 1019.6 3.8
28/03:00am 14.5 14.2 14.3 99 0.1 W 9 13 5 7 1019.9 1019.8 3.8
28/02:30am 14.5 13.8 14.3 99 0.1 W 11 17 6 9 1019.9 1019.8 3.6
28/02:00am 14.6 13.5 14.4 99 0.1 WSW 13 17 7 9 1019.7 1019.6 3.6
28/01:30am 14.7 13.7 14.5 99 0.1 W 13 19 7 10 1020.0 1019.9 3.6
28/01:00am 14.8 13.8 14.6 99 0.1 NW 13 17 7 9 1020.3 1020.2 3.6
28/12:30am 14.4 14.0 14.2 99 0.1 NW 9 15 5 8 1020.3 1020.2 3.6
28/12:00am 14.2 13.4 14.0 99 0.1 NNW 11 17 6 9 1020.2 1020.1 3.4
 
Date/Time
EST
Temp
°C
App
Temp
°C
Dew
Point
Rel
Hum
%
Delta-T
°C
Wind Press
QNH
hPa
Press
MSL
hPa
Rain
since 9 am
mm
Dir
 
Spd
km/h
Gust
km/h
Spd
kts
Gust
kts
27/11:30pm 14.5 14.5 14.3 99 0.1 NNW 7 11 4 6 1020.2 1020.1 3.4
27/11:00pm 14.4 14.0 14.2 99 0.1 NNW 9 13 5 7 1020.5 1020.4 3.4
27/10:30pm 14.4 14.0 14.2 99 0.1 NNW 9 13 5 7 1020.4 1020.3 3.2
27/10:00pm 14.4 14.6 14.2 99 0.1 NNW 6 11 3 6 1020.5 1020.4 3.2
27/09:30pm 14.4 15.7 14.2 99 0.1 CALM 0 6 0 3 1020.5 1020.4 3.2
27/09:00pm 14.1 15.3 13.9 99 0.1 CALM 0 0 0 0 1020.2 1020.1 3.2
27/08:30pm 14.0 13.5 13.8 99 0.1 NNW 9 13 5 7 1020.2 1020.1 3.2
27/08:00pm 13.9 13.4 13.7 99 0.1 NNW 9 13 5 7 1020.1 1020.0 3.2
27/07:30pm 14.0 13.9 13.8 99 0.1 NNW 7 11 4 6 1020.1 1020.0 3.2
27/07:00pm 14.2 13.4 14.0 99 0.1 N 11 15 6 8 1019.7 1019.6 3.2
27/06:30pm 14.2 13.4 14.0 99 0.1 N 11 17 6 9 1019.5 1019.4 3.2
27/06:00pm 14.2 13.0 14.0 99 0.1 N 13 15 7 8 1019.3 1019.2 3.0
27/05:30pm 14.3 13.1 14.1 99 0.1 N 13 20 7 11 1019.7 1019.6 2.6
27/05:00pm 14.6 14.3 14.3 98 0.2 NNE 9 15 5 8 1019.0 1018.9 2.4
27/04:30pm 14.6 14.6 14.3 98 0.2 N 7 11 4 6 1018.8 1018.7 2.0
27/04:00pm 15.0 15.2 14.7 98 0.2 N 7 11 4 6 1018.7 1018.6 1.8
27/03:30pm 15.2 15.1 14.9 98 0.2 NNW 9 15 5 8 1018.9 1018.8 1.2
27/03:00pm 15.7 16.1 15.4 98 0.2 NNW 7 11 4 6 1018.6 1018.5 0.8
27/02:30pm 15.8 16.2 15.3 97 0.3 NNW 7 9 4 5 1018.6 1018.5 0.8
27/02:00pm 15.9 16.5 15.4 97 0.3 NNW 6 9 3 5 1018.8 1018.7 0.6
27/01:30pm 15.8 16.2 15.3 97 0.3 NW 7 9 4 5 1019.2 1019.1 0.6
27/01:00pm 15.5 15.4 14.0 91 0.8 W 7 11 4 6 1019.6 1019.5 0.6
27/12:30pm 16.5 16.8 14.9 90 0.9 WNW 7 11 4 6 1020.5 1020.4 0.4
27/12:00pm 17.2 18.5 14.1 82 1.8 CALM 0 0 0 0 1020.5 1020.4 0.2
27/11:30am 17.5 17.0 12.0 70 3.0 WNW 6 9 3 5 1020.6 1020.5 0.2
27/11:00am 17.1 17.6 14.0 82 1.8 W 4 9 2 5 1021.1 1021.0 0.2
27/10:30am 16.5 16.4 13.8 84 1.5 WNW 7 13 4 7 1021.7 1021.6 0.2
27/10:00am 16.0 15.4 13.5 85 1.4 W 9 13 5 7 1022.1 1022.0 0.2
27/09:30am 16.4 17.4 15.3 93 0.6 NNW 4 7 2 4 1021.7 1021.6 0.2
27/09:00am 16.2 17.3 15.7 97 0.3 NNW 4 9 2 5 1021.6 1021.5 0.0
27/08:30am 15.9 16.1 14.1 89 1.0 WNW 6 9 3 5 1021.6 1021.5 0.0
27/08:00am 15.7 15.9 14.6 93 0.6 WNW 7 13 4 7 1021.5 1021.4 0.0
27/07:30am 15.4 14.9 13.8 90 0.9 W 9 11 5 6 1020.6 1020.5 0.0
27/07:00am 15.6 15.0 13.4 87 1.2 W 9 15 5 8 1020.2 1020.1 0.0
27/06:30am 15.5 14.7 14.0 91 0.8 WNW 11 17 6 9 1020.1 1020.0 0.0
27/06:00am 15.3 14.9 14.0 92 0.7 W 9 15 5 8 1019.6 1019.5 0.0
27/05:30am 14.8 13.5 13.8 94 0.6 W 13 19 7 10 1019.7 1019.6 0.0
27/05:00am 14.5 13.7 14.0 97 0.3 W 11 19 6 10 1019.6 1019.5 0.0
27/04:30am 14.4 13.2 13.9 97 0.3 W 13 19 7 10 1019.8 1019.7 0.0
27/04:00am 15.1 13.7 14.5 96 0.3 W 15 22 8 12 1020.1 1020.0 0.0
27/03:30am 15.0 14.4 14.5 97 0.3 W 11 15 6 8 1019.4 1019.3 0.0
27/03:00am 15.3 15.1 14.8 97 0.3 WNW 9 15 5 8 1019.3 1019.2 0.0
27/02:30am 15.2 14.1 13.2 88 1.1 W 11 17 6 9 1019.1 1019.0 0.0
27/02:00am 15.2 14.1 12.0 81 1.7 W 9 15 5 8 1019.7 1019.6 0.0
27/01:30am 14.9 12.9 10.1 73 2.5 W 11 17 6 9 1019.8 1019.7 0.0
27/01:00am 16.0 14.5 9.0 63 3.6 W 7 13 4 7 1019.9 1019.8 0.0
27/12:30am 15.8 12.9 8.3 61 3.8 WNW 13 19 7 10 1020.0 1019.9 0.0
27/12:00am 15.1 12.1 7.9 62 3.6 WNW 13 15 7 8 1019.9 1019.8 0.0
 
Date/Time
EST
Temp
°C
App
Temp
°C
Dew
Point
Rel
Hum
%
Delta-T
°C
Wind Press
QNH
hPa
Press
MSL
hPa
Rain
since 9 am
mm
Dir
 
Spd
km/h
Gust
km/h
Spd
kts
Gust
kts
26/11:30pm 13.1 11.7 12.2 94 0.5 NNW 11 13 6 7 1020.4 1020.3 0.0
26/11:00pm 13.5 12.3 11.7 89 1.0 NNW 9 11 5 6 1020.4 1020.3 0.0
26/10:30pm 14.5 13.7 14.0 97 0.3 NW 11 15 6 8 1020.6 1020.5 0.0
26/10:00pm 15.3 15.6 15.0 98 0.2 NW 7 9 4 5 1020.5 1020.4 0.0
26/09:30pm 15.5 15.5 15.2 98 0.2 NW 9 13 5 7 1020.8 1020.7 0.0
26/09:00pm 15.9 16.0 15.6 98 0.2 NNW 9 11 5 6 1020.7 1020.6 0.0
26/08:30pm 16.3 15.8 16.0 98 0.2 NNW 13 15 7 8 1020.3 1020.2 0.0
26/08:00pm 16.2 16.1 15.9 98 0.2 NNW 11 15 6 8 1020.2 1020.1 0.0
26/07:30pm 16.1 15.2 15.8 98 0.2 NNW 15 19 8 10 1019.7 1019.6 0.0
26/07:00pm 16.1 15.6 15.8 98 0.2 NNW 13 17 7 9 1019.2 1019.1 0.0
26/06:30pm 16.8 16.4 16.3 97 0.3 N 13 17 7 9 1018.7 1018.6 0.0
26/06:00pm 17.4 17.2 15.6 89 1.1 NNE 11 15 6 8 1018.4 1018.3 0.0
26/05:30pm 18.1 17.2 13.8 76 2.5 N 11 15 6 8 1018.2 1018.1 0.0
26/05:00pm 19.6 18.3 12.4 63 4.0 ENE 11 15 6 8 1018.1 1018.0 0.0
26/04:30pm 24.3 22.7 7.9 35 8.7 W 6 9 3 5 1017.5 1017.4 0.0
26/04:00pm 24.5 22.5 7.2 33 9.1 WSW 7 11 4 6 1017.4 1017.3 0.0
26/03:30pm 25.0 22.3 7.2 32 9.4 W 11 17 6 9 1017.2 1017.1 0.0
26/03:00pm 25.4 21.9 7.1 31 9.6 WNW 15 26 8 14 1017.3 1017.2 0.0
26/02:30pm 25.5 21.7 5.7 28 10.2 WNW 15 28 8 15 1017.6 1017.5 0.0
26/02:00pm 25.3 20.8 2.1 22 11.1 W 15 30 8 16 1017.5 1017.4 0.0
26/01:30pm 25.7 22.7 5.8 28 10.3 W 11 19 6 10 1017.7 1017.6 0.0
26/01:00pm 25.6 22.9 7.2 31 9.7 WNW 11 19 6 10 1018.1 1018.0 0.0

Other Formats:

Comma delimited format used in spreadsheet applications
http://www.bom.gov.au/fwo/IDN60801/IDN60801.94598.axf

JavaScript Object Notation format (JSON) in row-major order
http://www.bom.gov.au/fwo/IDN60801/IDN60801.94598.json